createdAt,value
2017-02-07T01:01:32.389Z,0
2017-02-07T01:02:17.770Z,0
2017-02-07T01:03:17.703Z,0
2017-02-07T01:04:17.641Z,0
2017-02-07T01:05:17.579Z,0
2017-02-07T01:06:17.516Z,0
2017-02-07T01:07:17.451Z,0
2017-02-07T01:08:17.394Z,0
2017-02-07T01:09:17.323Z,0
2017-02-07T01:10:16.869Z,0
2017-02-07T01:11:17.199Z,0
2017-02-07T01:12:16.754Z,0
2017-02-07T01:13:17.073Z,0
2017-02-07T01:14:17.007Z,0
2017-02-07T01:15:16.941Z,0
2017-02-07T01:16:16.875Z,0
2017-02-07T01:17:16.818Z,0
2017-02-07T01:18:16.754Z,0
2017-02-07T01:19:16.690Z,0
2017-02-07T01:20:16.518Z,0
2017-02-07T01:21:16.563Z,0
2017-02-07T01:22:16.498Z,0
2017-02-07T01:23:16.435Z,0
2017-02-07T01:24:16.372Z,0
2017-02-07T01:25:16.315Z,0
2017-02-07T01:26:16.247Z,0
2017-02-07T01:27:16.186Z,0
2017-02-07T01:28:15.338Z,0
2017-02-07T01:29:16.052Z,0
2017-02-07T01:30:15.209Z,0
2017-02-07T01:31:15.539Z,0
2017-02-07T01:32:15.865Z,0
2017-02-07T01:33:15.416Z,0
2017-02-07T01:34:15.738Z,0
2017-02-07T01:35:15.291Z,0
2017-02-07T01:36:15.610Z,0
2017-02-07T01:37:15.163Z,0
2017-02-07T01:38:15.495Z,0
2017-02-07T01:39:15.030Z,0
2017-02-07T01:40:15.991Z,0
2017-02-07T01:41:18.368Z,0
2017-02-07T01:42:14.844Z,0
2017-02-07T01:43:15.169Z,0
2017-02-07T01:44:15.118Z,0
2017-02-07T01:45:14.952Z,0
2017-02-07T01:46:14.979Z,0
2017-02-07T01:47:14.917Z,0
2017-02-07T01:48:14.850Z,0
2017-02-07T01:49:14.788Z,0
2017-02-07T01:50:14.730Z,0
2017-02-07T01:51:14.666Z,0
2017-02-07T01:52:14.211Z,0
2017-02-07T01:53:14.535Z,0
2017-02-07T01:54:14.081Z,0
2017-02-07T01:55:14.409Z,0
2017-02-07T01:56:13.563Z,0
2017-02-07T01:57:14.286Z,0
2017-02-07T01:58:13.831Z,0
2017-02-07T01:59:14.163Z,0
2017-02-07T02:00:13.702Z,0
2017-02-07T02:01:13.636Z,0
2017-02-07T02:02:13.964Z,0
2017-02-07T02:03:13.899Z,0
2017-02-07T02:04:13.446Z,0
2017-02-07T02:05:13.775Z,0
2017-02-07T02:06:13.711Z,0
2017-02-07T02:07:13.645Z,0
2017-02-07T02:08:13.582Z,0
2017-02-07T02:09:13.128Z,0
2017-02-07T02:10:13.463Z,0
2017-02-07T02:11:13.006Z,0
2017-02-07T02:12:13.328Z,0
2017-02-07T02:13:13.270Z,0
2017-02-07T02:14:12.424Z,0
2017-02-07T02:15:13.145Z,0
2017-02-07T02:16:13.081Z,0
2017-02-07T02:17:13.041Z,0
2017-02-07T02:18:12.954Z,0
2017-02-07T02:19:12.107Z,0
2017-02-07T02:20:12.823Z,0
2017-02-07T02:21:11.981Z,0
2017-02-07T02:22:12.695Z,0
2017-02-07T02:23:11.856Z,0
2017-02-07T02:24:12.211Z,0
2017-02-07T02:25:11.726Z,0
2017-02-07T02:26:12.441Z,0
2017-02-07T02:27:12.381Z,0
2017-02-07T02:28:12.316Z,0
2017-02-07T02:29:12.251Z,0
2017-02-07T02:30:12.193Z,0
2017-02-07T02:31:12.131Z,0
2017-02-07T02:32:12.065Z,0
2017-02-07T02:33:12.003Z,0
2017-02-07T02:34:11.957Z,0
2017-02-07T02:35:11.494Z,0
2017-02-07T02:36:11.419Z,0
2017-02-07T02:37:11.744Z,0
2017-02-07T02:38:11.685Z,0
2017-02-07T02:39:11.623Z,0
2017-02-07T02:40:11.859Z,0
2017-02-07T02:41:11.496Z,0
2017-02-07T02:42:11.435Z,0
2017-02-07T02:43:12.575Z,0
2017-02-07T02:44:11.306Z,0
2017-02-07T02:45:11.247Z,0
2017-02-07T02:46:11.174Z,0
2017-02-07T02:47:10.720Z,0
2017-02-07T02:48:11.047Z,0
2017-02-07T02:49:10.987Z,0
2017-02-07T02:50:10.921Z,0
2017-02-07T02:51:10.858Z,0
2017-02-07T02:52:10.404Z,0
2017-02-07T02:53:10.735Z,0
2017-02-07T02:54:09.891Z,0
2017-02-07T02:55:10.613Z,0
2017-02-07T02:56:10.154Z,0
2017-02-07T02:57:10.685Z,0
2017-02-07T02:58:10.025Z,0
2017-02-07T02:59:09.960Z,0
2017-02-07T03:00:09.513Z,0
2017-02-07T03:01:10.234Z,0
2017-02-07T03:02:10.161Z,0
2017-02-07T03:03:10.102Z,0
2017-02-07T03:04:10.038Z,0
2017-02-07T03:05:10.004Z,0
2017-02-07T03:06:09.944Z,0
2017-02-07T03:07:09.456Z,0
2017-02-07T03:08:09.003Z,0
2017-02-07T03:09:09.721Z,0
2017-02-07T03:10:09.657Z,0
2017-02-07T03:11:09.596Z,0
2017-02-07T03:12:09.140Z,0
2017-02-07T03:13:09.469Z,0
2017-02-07T03:14:09.402Z,0
2017-02-07T03:15:09.339Z,0
2017-02-07T03:16:08.888Z,0
2017-02-07T03:17:09.214Z,0
2017-02-07T03:18:09.148Z,0
2017-02-07T03:19:09.085Z,0
2017-02-07T03:20:08.641Z,0
2017-02-07T03:21:08.963Z,0
2017-02-07T03:22:08.900Z,0
2017-02-07T03:23:08.832Z,0
2017-02-07T03:24:08.769Z,0
2017-02-07T03:25:08.707Z,0
2017-02-07T03:26:08.646Z,0
2017-02-07T03:27:08.583Z,0
2017-02-07T03:28:08.521Z,0
2017-02-07T03:29:08.456Z,0
2017-02-07T03:30:08.000Z,0
2017-02-07T03:31:08.329Z,0
2017-02-07T03:32:08.261Z,0
2017-02-07T03:33:08.199Z,0
2017-02-07T03:34:08.139Z,0
2017-02-07T03:35:08.274Z,0
2017-02-07T03:36:08.015Z,0
2017-02-07T03:37:07.947Z,0
2017-02-07T03:38:07.882Z,0
2017-02-07T03:39:07.819Z,0
2017-02-07T03:40:07.753Z,0
2017-02-07T03:41:07.690Z,0
2017-02-07T03:42:07.629Z,0
2017-02-07T03:43:07.563Z,0
2017-02-07T03:44:07.506Z,0
2017-02-07T03:45:07.051Z,0
2017-02-07T03:46:07.374Z,0
2017-02-07T03:47:07.313Z,0
2017-02-07T03:48:07.257Z,0
2017-02-07T03:49:07.183Z,0
2017-02-07T03:50:07.121Z,0
2017-02-07T03:51:07.060Z,0
2017-02-07T03:52:06.996Z,0
2017-02-07T03:53:06.928Z,0
2017-02-07T03:54:06.868Z,0
2017-02-07T03:55:06.804Z,0
2017-02-07T03:56:06.743Z,0
2017-02-07T03:57:06.679Z,0
2017-02-07T03:58:06.611Z,0
2017-02-07T03:59:06.551Z,0
2017-02-07T04:00:06.098Z,0
2017-02-07T04:01:06.427Z,0
2017-02-07T04:02:06.363Z,0
2017-02-07T04:03:06.299Z,0
2017-02-07T04:04:06.234Z,0
2017-02-07T04:05:06.469Z,0
2017-02-07T04:06:06.111Z,0
2017-02-07T04:07:06.044Z,0
2017-02-07T04:08:05.983Z,0
2017-02-07T04:09:05.920Z,0
2017-02-07T04:10:05.859Z,0
2017-02-07T04:11:05.818Z,0
2017-02-07T04:12:05.338Z,0
2017-02-07T04:13:05.665Z,0
2017-02-07T04:14:05.603Z,0
2017-02-07T04:15:05.543Z,0
2017-02-07T04:16:05.470Z,0
2017-02-07T04:17:05.413Z,0
2017-02-07T04:18:05.345Z,0
2017-02-07T04:19:04.892Z,0
2017-02-07T04:20:05.569Z,0
2017-02-07T04:21:05.154Z,0
2017-02-07T04:22:05.096Z,0
2017-02-07T04:23:05.031Z,0
2017-02-07T04:24:04.968Z,0
2017-02-07T04:25:04.900Z,0
2017-02-07T04:26:04.840Z,0
2017-02-07T04:27:04.775Z,0
2017-02-07T04:28:04.719Z,0
2017-02-07T04:29:04.652Z,0
2017-02-07T04:30:04.586Z,0
2017-02-07T04:31:04.522Z,0
2017-02-07T04:32:04.458Z,0
2017-02-07T04:33:04.399Z,0
2017-02-07T04:34:04.337Z,0
2017-02-07T04:35:04.269Z,0
2017-02-07T04:36:04.212Z,0
2017-02-07T04:37:04.145Z,0
2017-02-07T04:38:04.081Z,0
2017-02-07T04:39:04.022Z,0
2017-02-07T04:40:03.952Z,0
2017-02-07T04:41:03.892Z,0
2017-02-07T04:42:03.830Z,0
2017-02-07T04:43:03.762Z,0
2017-02-07T04:44:03.703Z,0
2017-02-07T04:45:03.709Z,0
2017-02-07T04:46:03.576Z,0
2017-02-07T04:47:03.509Z,0
2017-02-07T04:48:03.444Z,0
2017-02-07T04:49:03.385Z,0
2017-02-07T04:50:03.617Z,0
2017-02-07T04:51:03.257Z,0
2017-02-07T04:52:03.194Z,0
2017-02-07T04:53:03.127Z,0
2017-02-07T04:54:03.066Z,0
2017-02-07T04:55:03.002Z,0
2017-02-07T04:56:02.940Z,0
2017-02-07T04:57:02.876Z,0
2017-02-07T04:58:02.809Z,0
2017-02-07T04:59:02.359Z,0
2017-02-07T05:00:02.688Z,0
2017-02-07T05:01:02.623Z,0
2017-02-07T05:02:02.557Z,0
2017-02-07T05:03:02.503Z,0
2017-02-07T05:04:02.431Z,0
2017-02-07T05:05:02.375Z,0
2017-02-07T05:06:02.308Z,0
2017-02-07T05:07:02.242Z,0
2017-02-07T05:08:02.185Z,0
2017-02-07T05:09:02.120Z,0
2017-02-07T05:10:02.051Z,0
2017-02-07T05:11:01.988Z,0
2017-02-07T05:12:01.932Z,0
2017-02-07T05:13:01.860Z,0
2017-02-07T05:14:01.804Z,0
2017-02-07T05:15:01.738Z,0
2017-02-07T05:16:01.668Z,0
2017-02-07T05:17:01.221Z,0
2017-02-07T05:18:01.542Z,0
2017-02-07T05:19:01.484Z,0
2017-02-07T05:20:01.419Z,0
2017-02-07T05:21:01.355Z,0
2017-02-07T05:22:00.905Z,0
2017-02-07T05:23:01.226Z,0
2017-02-07T05:24:01.164Z,0
2017-02-07T05:25:01.102Z,0
2017-02-07T05:26:01.038Z,0
2017-02-07T05:27:00.974Z,0
2017-02-07T05:28:00.915Z,0
2017-02-07T05:29:00.855Z,0
2017-02-07T05:30:00.789Z,0
2017-02-07T05:31:00.726Z,0
2017-02-07T05:32:00.659Z,0
2017-02-07T05:33:00.598Z,0
2017-02-07T05:34:00.534Z,0
2017-02-07T05:35:00.477Z,0
2017-02-07T05:36:00.409Z,0
2017-02-07T05:37:00.342Z,0
2017-02-07T05:38:00.278Z,0
2017-02-07T05:38:59.820Z,0
2017-02-07T05:40:00.152Z,0
2017-02-07T05:40:59.698Z,0
2017-02-07T05:41:59.630Z,0
2017-02-07T05:42:59.954Z,0
2017-02-07T05:43:59.505Z,0
2017-02-07T05:44:59.833Z,0
2017-02-07T05:45:59.772Z,0
2017-02-07T05:46:59.711Z,0
2017-02-07T05:47:59.647Z,0
2017-02-07T05:48:59.580Z,0
2017-02-07T05:49:59.514Z,0
2017-02-07T05:50:59.453Z,0
2017-02-07T05:51:59.392Z,0
2017-02-07T05:52:58.934Z,0
2017-02-07T05:53:59.273Z,0
2017-02-07T05:54:59.198Z,0
2017-02-07T05:55:59.142Z,0
2017-02-07T05:56:59.072Z,0
2017-02-07T05:57:59.008Z,0
2017-02-07T05:58:58.940Z,0
2017-02-07T05:59:58.878Z,0
2017-02-07T06:00:58.823Z,0
2017-02-07T06:01:58.764Z,0
2017-02-07T06:02:58.686Z,0
2017-02-07T06:03:58.632Z,0
2017-02-07T06:04:58.567Z,0
2017-02-07T06:05:58.499Z,0
2017-02-07T06:06:58.435Z,0
2017-02-07T06:07:58.370Z,0
2017-02-07T06:08:57.920Z,0
2017-02-07T06:09:58.249Z,0
2017-02-07T06:10:58.185Z,0
2017-02-07T06:11:57.728Z,0
2017-02-07T06:12:58.062Z,0
2017-02-07T06:13:57.994Z,0
2017-02-07T06:14:57.933Z,0
2017-02-07T06:15:57.867Z,0
2017-02-07T06:16:57.808Z,0
2017-02-07T06:17:57.741Z,0
2017-02-07T06:18:57.286Z,0
2017-02-07T06:19:57.612Z,0
2017-02-07T06:20:57.549Z,0
2017-02-07T06:21:57.489Z,0
2017-02-07T06:22:57.453Z,0
2017-02-07T06:23:57.364Z,0
2017-02-07T06:24:57.303Z,0
2017-02-07T06:25:57.232Z,0
2017-02-07T06:26:57.169Z,0
2017-02-07T06:27:57.110Z,0
2017-02-07T06:28:57.039Z,0
2017-02-07T06:29:56.979Z,0
2017-02-07T06:30:56.920Z,0
2017-02-07T06:31:56.846Z,0
2017-02-07T06:32:56.788Z,0
2017-02-07T06:33:56.726Z,0
2017-02-07T06:34:56.660Z,0
2017-02-07T06:35:56.605Z,0
2017-02-07T06:36:56.534Z,0
2017-02-07T06:37:56.470Z,0
2017-02-07T06:38:56.407Z,0
2017-02-07T06:39:56.345Z,0
2017-02-07T06:40:55.893Z,0
2017-02-07T06:41:56.216Z,0
2017-02-07T06:42:56.160Z,0
2017-02-07T06:43:56.092Z,0
2017-02-07T06:44:56.238Z,0
2017-02-07T06:45:55.964Z,0
2017-02-07T06:46:55.899Z,0
2017-02-07T06:47:55.840Z,0
2017-02-07T06:48:55.776Z,0
2017-02-07T06:49:55.708Z,4
2017-02-07T06:50:55.644Z,4
2017-02-07T06:51:55.588Z,4
2017-02-07T06:52:55.518Z,4
2017-02-07T06:53:55.456Z,4
2017-02-07T06:54:55.390Z,4
2017-02-07T06:55:55.334Z,4
2017-02-07T06:56:55.267Z,4
2017-02-07T06:57:55.203Z,4
2017-02-07T06:58:55.137Z,4
2017-02-07T06:59:55.077Z,4
2017-02-07T07:00:55.013Z,4
2017-02-07T07:01:54.951Z,4
2017-02-07T07:02:54.882Z,4
2017-02-07T07:03:54.833Z,4
2017-02-07T07:04:54.762Z,4
2017-02-07T07:05:54.305Z,4
2017-02-07T07:06:54.634Z,4
2017-02-07T07:07:54.178Z,4
2017-02-07T07:08:54.114Z,4
2017-02-07T07:09:54.441Z,4
2017-02-07T07:10:53.990Z,8
2017-02-07T07:11:54.316Z,8
2017-02-07T07:12:54.250Z,8
2017-02-07T07:13:54.188Z,8
2017-02-07T07:14:54.125Z,8
2017-02-07T07:15:54.063Z,8
2017-02-07T07:16:53.996Z,8
2017-02-07T07:17:53.933Z,8
2017-02-07T07:18:53.868Z,8
2017-02-07T07:19:53.807Z,8
2017-02-07T07:20:53.745Z,8
2017-02-07T07:21:53.682Z,8
2017-02-07T07:22:53.618Z,8
2017-02-07T07:23:53.560Z,8
2017-02-07T07:24:53.495Z,8
2017-02-07T07:25:53.433Z,8
2017-02-07T07:26:53.365Z,8
2017-02-07T07:27:52.910Z,8
2017-02-07T07:28:53.237Z,8
2017-02-07T07:29:53.173Z,8
2017-02-07T07:30:53.413Z,8
2017-02-07T07:31:53.048Z,8
2017-02-07T07:32:52.987Z,8
2017-02-07T07:33:52.921Z,8
2017-02-07T07:34:52.856Z,8
2017-02-07T07:35:53.092Z,8
2017-02-07T07:36:52.730Z,8
2017-02-07T07:37:52.669Z,8
2017-02-07T07:38:52.609Z,8
2017-02-07T07:39:52.543Z,8
2017-02-07T07:40:52.478Z,8
2017-02-07T07:41:52.411Z,8
2017-02-07T07:42:52.350Z,12
2017-02-07T07:43:52.287Z,12
2017-02-07T07:44:52.222Z,8
2017-02-07T07:45:52.404Z,12
2017-02-07T07:46:52.103Z,8
2017-02-07T07:47:52.060Z,8
2017-02-07T07:48:51.974Z,8
2017-02-07T07:49:51.902Z,8
2017-02-07T07:50:51.989Z,8
2017-02-07T07:51:51.787Z,8
2017-02-07T07:52:51.715Z,8
2017-02-07T07:53:51.651Z,8
2017-02-07T07:54:51.586Z,8
2017-02-07T07:55:51.524Z,8
2017-02-07T07:56:51.465Z,8
2017-02-07T07:57:51.398Z,8
2017-02-07T07:58:51.334Z,8
2017-02-07T07:59:51.269Z,8
2017-02-07T08:00:51.507Z,8
2017-02-07T08:01:51.143Z,8
2017-02-07T08:02:51.080Z,8
2017-02-07T08:03:51.024Z,8
2017-02-07T08:04:50.953Z,8
2017-02-07T08:05:51.139Z,8
2017-02-07T08:06:50.826Z,8
2017-02-07T08:07:50.771Z,8
2017-02-07T08:08:50.700Z,12
2017-02-07T08:09:50.639Z,8
2017-02-07T08:10:50.571Z,8
2017-02-07T08:11:50.519Z,8
2017-02-07T08:12:50.446Z,8
2017-02-07T08:13:50.380Z,8
2017-02-07T08:14:50.326Z,8
2017-02-07T08:15:50.252Z,8
2017-02-07T08:16:50.204Z,8
2017-02-07T08:17:50.129Z,8
2017-02-07T08:18:50.066Z,8
2017-02-07T08:19:50.003Z,8
2017-02-07T08:20:49.941Z,8
2017-02-07T08:21:49.890Z,8
2017-02-07T08:22:49.813Z,8
2017-02-07T08:23:49.745Z,8
2017-02-07T08:24:49.295Z,8
2017-02-07T08:25:49.625Z,8
2017-02-07T08:26:49.557Z,8
2017-02-07T08:27:49.496Z,8
2017-02-07T08:28:49.542Z,8
2017-02-07T08:29:49.402Z,8
2017-02-07T08:30:49.372Z,8
2017-02-07T08:31:49.239Z,8
2017-02-07T08:32:49.184Z,8
2017-02-07T08:33:49.114Z,8
2017-02-07T08:34:49.050Z,8
2017-02-07T08:35:48.984Z,8
2017-02-07T08:36:48.922Z,8
2017-02-07T08:37:48.860Z,8
2017-02-07T08:38:48.798Z,8
2017-02-07T08:39:48.736Z,8
2017-02-07T08:40:49.025Z,8
2017-02-07T08:41:48.608Z,8
2017-02-07T08:42:48.540Z,8
2017-02-07T08:43:48.483Z,8
2017-02-07T08:44:48.415Z,100
2017-02-07T08:45:47.966Z,136
2017-02-07T08:46:48.293Z,152
2017-02-07T08:47:48.224Z,152
2017-02-07T08:48:48.161Z,152
2017-02-07T08:49:48.102Z,152
2017-02-07T08:50:48.034Z,156
2017-02-07T08:51:47.971Z,152
2017-02-07T08:52:47.921Z,152
2017-02-07T08:53:47.842Z,152
2017-02-07T08:54:47.782Z,152
2017-02-07T08:55:47.718Z,152
2017-02-07T08:56:47.654Z,152
2017-02-07T08:57:47.596Z,152
2017-02-07T08:58:47.526Z,152
2017-02-07T08:59:47.071Z,148
2017-02-07T09:00:47.621Z,148
2017-02-07T09:01:47.337Z,148
2017-02-07T09:02:47.273Z,148
2017-02-07T09:03:47.211Z,148
2017-02-07T09:04:47.146Z,148
2017-02-07T09:05:47.088Z,148
2017-02-07T09:06:47.021Z,152
2017-02-07T09:07:46.960Z,148
2017-02-07T09:08:46.897Z,152
2017-02-07T09:09:46.828Z,152
2017-02-07T09:10:46.768Z,152
2017-02-07T09:11:46.710Z,152
2017-02-07T09:12:46.657Z,152
2017-02-07T09:13:46.573Z,148
2017-02-07T09:14:46.516Z,152
2017-02-07T09:15:46.448Z,152
2017-02-07T09:16:46.386Z,152
2017-02-07T09:17:45.932Z,152
2017-02-07T09:18:46.262Z,152
2017-02-07T09:19:46.197Z,148
2017-02-07T09:20:46.131Z,152
2017-02-07T09:21:46.067Z,152
2017-02-07T09:22:46.023Z,152
2017-02-07T09:23:45.945Z,152
2017-02-07T09:24:45.884Z,152
2017-02-07T09:25:45.819Z,152
2017-02-07T09:26:45.750Z,152
2017-02-07T09:27:45.698Z,152
2017-02-07T09:28:45.629Z,152
2017-02-07T09:29:45.569Z,152
2017-02-07T09:30:45.503Z,152
2017-02-07T09:31:45.043Z,152
2017-02-07T09:32:44.979Z,152
2017-02-07T09:33:45.310Z,152
2017-02-07T09:34:44.467Z,152
2017-02-07T09:35:44.795Z,152
2017-02-07T09:36:45.119Z,152
2017-02-07T09:37:45.064Z,148
2017-02-07T09:38:44.995Z,152
2017-02-07T09:39:44.571Z,152
2017-02-07T09:40:44.477Z,152
2017-02-07T09:41:44.412Z,148
2017-02-07T09:42:44.738Z,148
2017-02-07T09:43:44.678Z,148
2017-02-07T09:44:44.614Z,148
2017-02-07T09:45:44.550Z,148
2017-02-07T09:46:44.486Z,152
2017-02-07T09:47:44.424Z,152
2017-02-07T09:48:44.363Z,152
2017-02-07T09:49:44.297Z,152
2017-02-07T09:50:44.235Z,152
2017-02-07T09:51:44.168Z,152
2017-02-07T09:52:44.107Z,152
2017-02-07T09:53:44.041Z,152
2017-02-07T09:54:43.981Z,152
2017-02-07T09:55:43.913Z,152
2017-02-07T09:56:43.851Z,148
2017-02-07T09:57:43.790Z,148
2017-02-07T09:58:43.729Z,148
2017-02-07T09:59:43.660Z,148
2017-02-07T10:00:43.601Z,148
2017-02-07T10:01:43.535Z,152
2017-02-07T10:02:43.480Z,152
2017-02-07T10:03:43.441Z,148
2017-02-07T10:04:43.344Z,148
2017-02-07T10:05:43.281Z,148
2017-02-07T10:06:43.223Z,148
2017-02-07T10:07:43.159Z,148
2017-02-07T10:08:43.094Z,148
2017-02-07T10:09:43.029Z,148
2017-02-07T10:10:42.195Z,12
2017-02-07T10:11:42.513Z,12
2017-02-07T10:12:42.843Z,12
2017-02-07T10:13:42.778Z,12
2017-02-07T10:14:42.713Z,12
2017-02-07T10:15:57.149Z,12
2017-02-07T10:16:42.804Z,12
2017-02-07T10:17:42.536Z,12
2017-02-07T10:18:42.458Z,12
2017-02-07T10:19:42.399Z,12
2017-02-07T10:20:42.338Z,12
2017-02-07T10:21:42.271Z,12
2017-02-07T10:22:42.239Z,12
2017-02-07T10:23:42.222Z,12
2017-02-07T10:24:42.083Z,12
2017-02-07T10:25:42.133Z,12
2017-02-07T10:26:41.955Z,16
2017-02-07T10:27:41.897Z,16
2017-02-07T10:28:41.829Z,16
2017-02-07T10:29:41.765Z,16
2017-02-07T10:30:41.700Z,16
2017-02-07T10:31:41.640Z,16
2017-02-07T10:32:41.188Z,12
2017-02-07T10:33:41.513Z,12
2017-02-07T10:34:41.090Z,12
2017-02-07T10:35:41.386Z,16
2017-02-07T10:36:41.320Z,16
2017-02-07T10:37:41.260Z,16
2017-02-07T10:38:41.203Z,16
2017-02-07T10:39:40.779Z,12
2017-02-07T10:40:41.377Z,16
2017-02-07T10:41:41.048Z,16
2017-02-07T10:42:40.559Z,16
2017-02-07T10:43:40.488Z,16
2017-02-07T10:44:40.820Z,16
2017-02-07T10:45:41.155Z,16
2017-02-07T10:46:40.693Z,16
2017-02-07T10:47:40.626Z,16
2017-02-07T10:48:40.569Z,16
2017-02-07T10:49:40.504Z,16
2017-02-07T10:50:40.440Z,16
2017-02-07T10:51:40.376Z,16
2017-02-07T10:52:39.926Z,16
2017-02-07T10:53:40.249Z,16
2017-02-07T10:54:40.185Z,16
2017-02-07T10:55:40.124Z,16
2017-02-07T10:56:39.668Z,16
2017-02-07T10:57:39.608Z,12
2017-02-07T10:58:39.957Z,16
2017-02-07T10:59:39.481Z,12
2017-02-07T11:00:39.808Z,12
2017-02-07T11:01:39.775Z,16
2017-02-07T11:02:39.681Z,16
2017-02-07T11:03:39.626Z,16
2017-02-07T11:04:39.556Z,16
2017-02-07T11:05:39.104Z,16
2017-02-07T11:06:39.425Z,16
2017-02-07T11:07:39.359Z,12
2017-02-07T11:08:39.298Z,116
2017-02-07T11:09:39.592Z,144
2017-02-07T11:10:38.784Z,148
2017-02-07T11:11:39.114Z,156
2017-02-07T11:12:39.062Z,156
2017-02-07T11:13:38.989Z,152
2017-02-07T11:14:38.918Z,152
2017-02-07T11:15:38.856Z,152
2017-02-07T11:16:38.408Z,156
2017-02-07T11:17:38.736Z,156
2017-02-07T11:18:38.675Z,156
2017-02-07T11:19:38.607Z,152
2017-02-07T11:20:38.555Z,152
2017-02-07T11:21:38.479Z,152
2017-02-07T11:22:38.412Z,152
2017-02-07T11:23:38.355Z,152
2017-02-07T11:24:38.291Z,152
2017-02-07T11:25:37.833Z,152
2017-02-07T11:26:37.815Z,152
2017-02-07T11:27:38.100Z,152
2017-02-07T11:28:38.033Z,148
2017-02-07T11:29:37.972Z,148
2017-02-07T11:30:37.933Z,152
2017-02-07T11:31:37.848Z,148
2017-02-07T11:32:37.786Z,152
2017-02-07T11:33:37.923Z,152
2017-02-07T11:34:37.659Z,152
2017-02-07T11:35:37.594Z,152
2017-02-07T11:36:37.534Z,152
2017-02-07T11:37:37.466Z,152
2017-02-07T11:38:37.405Z,152
2017-02-07T11:39:37.345Z,152
2017-02-07T11:40:37.290Z,152
2017-02-07T11:41:37.218Z,152
2017-02-07T11:42:37.153Z,152
2017-02-07T11:43:37.094Z,152
2017-02-07T11:44:36.641Z,152
2017-02-07T11:45:36.963Z,148
2017-02-07T11:46:36.619Z,148
2017-02-07T11:47:36.451Z,148
2017-02-07T11:48:36.775Z,148
2017-02-07T11:49:36.322Z,148
2017-02-07T11:50:36.899Z,148
2017-02-07T11:51:36.582Z,148
2017-02-07T11:52:36.527Z,148
2017-02-07T11:53:36.462Z,148
2017-02-07T11:54:36.394Z,148
2017-02-07T11:55:36.330Z,148
2017-02-07T11:56:36.272Z,148
2017-02-07T11:57:36.205Z,148
2017-02-07T11:58:36.141Z,152
2017-02-07T11:59:36.091Z,152
2017-02-07T12:00:36.364Z,152
2017-02-07T12:01:35.960Z,152
2017-02-07T12:02:35.888Z,152
2017-02-07T12:03:35.437Z,148
2017-02-07T12:04:35.375Z,148
2017-02-07T12:05:35.701Z,148
2017-02-07T12:06:35.736Z,148
2017-02-07T12:07:35.206Z,148
2017-02-07T12:08:35.510Z,144
2017-02-07T12:09:35.451Z,144
2017-02-07T12:10:35.424Z,144
2017-02-07T12:11:35.322Z,144
2017-02-07T12:12:34.875Z,144
2017-02-07T12:13:35.221Z,144
2017-02-07T12:14:35.133Z,144
2017-02-07T12:15:35.069Z,144
2017-02-07T12:16:35.013Z,144
2017-02-07T12:17:34.949Z,144
2017-02-07T12:18:34.884Z,144
2017-02-07T12:19:34.822Z,148
2017-02-07T12:20:34.784Z,148
2017-02-07T12:21:34.693Z,148
2017-02-07T12:22:34.629Z,148
2017-02-07T12:23:34.570Z,148
2017-02-07T12:24:34.829Z,148
2017-02-07T12:25:39.259Z,148
2017-02-07T12:26:38.609Z,148
2017-02-07T12:27:35.548Z,148
2017-02-07T12:28:34.817Z,148
2017-02-07T12:29:35.881Z,144
2017-02-07T12:30:34.811Z,144
2017-02-07T12:31:34.063Z,148
2017-02-07T12:32:33.999Z,148
2017-02-07T12:33:33.547Z,148
2017-02-07T12:34:33.881Z,148
2017-02-07T12:35:33.811Z,144
2017-02-07T12:36:33.746Z,144
2017-02-07T12:37:35.673Z,148
2017-02-07T12:38:39.065Z,148
2017-02-07T12:39:33.572Z,148
2017-02-07T12:40:33.504Z,12
2017-02-07T12:41:33.450Z,12
2017-02-07T12:42:33.379Z,12
2017-02-07T12:43:32.921Z,12
2017-02-07T12:44:33.283Z,12
2017-02-07T12:45:33.198Z,12
2017-02-07T12:46:32.749Z,12
2017-02-07T12:47:33.055Z,12
2017-02-07T12:48:32.619Z,12
2017-02-07T12:49:32.949Z,12
2017-02-07T12:50:32.871Z,12
2017-02-07T12:51:32.429Z,12
2017-02-07T12:52:32.758Z,12
2017-02-07T12:53:32.290Z,12
2017-02-07T12:54:32.639Z,12
2017-02-07T12:55:32.565Z,12
2017-02-07T12:56:32.500Z,12
2017-02-07T12:57:32.438Z,12
2017-02-07T12:58:31.620Z,12
2017-02-07T12:59:32.309Z,12
2017-02-07T13:00:32.253Z,12
2017-02-07T13:01:32.182Z,12
2017-02-07T13:02:32.124Z,12
2017-02-07T13:03:32.059Z,12
2017-02-07T13:04:32.065Z,12
2017-02-07T13:05:31.947Z,12
2017-02-07T13:06:31.886Z,12
2017-02-07T13:07:31.798Z,12
2017-02-07T13:08:31.579Z,12
2017-02-07T13:09:31.667Z,8
2017-02-07T13:10:31.918Z,8
2017-02-07T13:11:31.546Z,8
2017-02-07T13:12:31.502Z,12
2017-02-07T13:13:31.426Z,8
2017-02-07T13:14:31.394Z,12
2017-02-07T13:15:31.152Z,12
2017-02-07T13:16:31.227Z,12
2017-02-07T13:17:30.795Z,12
2017-02-07T13:18:30.718Z,12
2017-02-07T13:19:31.047Z,12
2017-02-07T13:20:30.583Z,12
2017-02-07T13:21:30.523Z,12
2017-02-07T13:22:30.461Z,12
2017-02-07T13:23:31.569Z,12
2017-02-07T13:24:30.415Z,12
2017-02-07T13:25:30.279Z,12
2017-02-07T13:26:30.596Z,12
2017-02-07T13:27:30.543Z,12
2017-02-07T13:28:30.472Z,12
2017-02-07T13:29:30.405Z,12
2017-02-07T13:30:30.358Z,12
2017-02-07T13:31:30.289Z,12
2017-02-07T13:32:30.228Z,12
2017-02-07T13:33:30.152Z,12
2017-02-07T13:34:30.089Z,12
2017-02-07T13:35:30.039Z,12
2017-02-07T13:36:29.964Z,12
2017-02-07T13:37:29.900Z,12
2017-02-07T13:38:29.853Z,12
2017-02-07T13:39:29.785Z,12
2017-02-07T13:40:29.718Z,12
2017-02-07T13:41:29.261Z,12
2017-02-07T13:42:29.198Z,12
2017-02-07T13:43:28.746Z,12
2017-02-07T13:44:29.458Z,12
2017-02-07T13:45:29.406Z,12
2017-02-07T13:46:29.339Z,12
2017-02-07T13:47:28.884Z,12
2017-02-07T13:48:29.210Z,12
2017-02-07T13:49:29.143Z,12
2017-02-07T13:50:28.691Z,12
2017-02-07T13:51:29.020Z,12
2017-02-07T13:52:28.953Z,12
2017-02-07T13:53:28.892Z,12
2017-02-07T13:54:28.834Z,12
2017-02-07T13:55:28.765Z,12
2017-02-07T13:56:28.707Z,12
2017-02-07T13:57:28.255Z,12
2017-02-07T13:58:28.578Z,12
2017-02-07T13:59:28.515Z,12
2017-02-07T14:00:28.065Z,12
2017-02-07T14:01:28.383Z,8
2017-02-07T14:02:28.323Z,8
2017-02-07T14:03:28.265Z,12
2017-02-07T14:04:28.789Z,12
2017-02-07T14:05:27.745Z,12
2017-02-07T14:06:27.714Z,8
2017-02-07T14:07:28.004Z,12
2017-02-07T14:08:27.940Z,12
2017-02-07T14:09:27.879Z,12
2017-02-07T14:10:28.072Z,12
2017-02-07T14:11:27.748Z,12
2017-02-07T14:12:27.692Z,12
2017-02-07T14:13:27.626Z,12
2017-02-07T14:14:27.563Z,12
2017-02-07T14:15:27.499Z,12
2017-02-07T14:16:27.441Z,12
2017-02-07T14:17:27.370Z,12
2017-02-07T14:18:27.350Z,8
2017-02-07T14:19:26.861Z,8
2017-02-07T14:20:26.790Z,8
2017-02-07T14:21:27.367Z,8
2017-02-07T14:22:26.282Z,8
2017-02-07T14:23:27.004Z,8
2017-02-07T14:24:26.960Z,8
2017-02-07T14:25:26.868Z,8
2017-02-07T14:26:27.256Z,8
2017-02-07T14:27:26.740Z,12
2017-02-07T14:28:26.688Z,12
2017-02-07T14:29:26.611Z,12
2017-02-07T14:30:26.574Z,12
2017-02-07T14:31:26.837Z,12
2017-02-07T14:32:26.423Z,12
2017-02-07T14:33:26.358Z,12
2017-02-07T14:34:26.297Z,12
2017-02-07T14:35:26.548Z,12
2017-02-07T14:36:25.781Z,12
2017-02-07T14:37:26.106Z,12
2017-02-07T14:38:26.044Z,12
2017-02-07T14:39:25.997Z,12
2017-02-07T14:40:26.218Z,12
2017-02-07T14:41:25.853Z,12
2017-02-07T14:42:25.792Z,12
2017-02-07T14:43:25.735Z,12
2017-02-07T14:44:25.669Z,12
2017-02-07T14:45:25.601Z,12
2017-02-07T14:46:25.540Z,12
2017-02-07T14:47:25.484Z,12
2017-02-07T14:48:25.417Z,12
2017-02-07T14:49:24.964Z,12
2017-02-07T14:50:28.623Z,12
2017-02-07T14:51:25.223Z,12
2017-02-07T14:52:25.246Z,12
2017-02-07T14:53:25.181Z,12
2017-02-07T14:54:25.114Z,12
2017-02-07T14:55:25.026Z,12
2017-02-07T14:56:25.204Z,8
2017-02-07T14:57:24.491Z,8
2017-02-07T14:58:24.970Z,8
2017-02-07T14:59:24.323Z,8
2017-02-07T15:00:24.528Z,8
2017-02-07T15:01:24.592Z,8
2017-02-07T15:02:24.527Z,8
2017-02-07T15:03:24.466Z,8
2017-02-07T15:04:24.397Z,8
2017-02-07T15:05:24.337Z,8
2017-02-07T15:06:24.276Z,8
2017-02-07T15:07:23.819Z,8
2017-02-07T15:08:24.154Z,8
2017-02-07T15:09:24.087Z,8
2017-02-07T15:10:24.094Z,8
2017-02-07T15:11:23.974Z,8
2017-02-07T15:12:24.203Z,8
2017-02-07T15:13:24.130Z,8
2017-02-07T15:14:23.768Z,8
2017-02-07T15:15:23.700Z,8
2017-02-07T15:16:23.659Z,8
2017-02-07T15:17:23.589Z,8
2017-02-07T15:18:23.528Z,8
2017-02-07T15:19:23.464Z,8
2017-02-07T15:20:24.075Z,8
2017-02-07T15:21:23.327Z,8
2017-02-07T15:22:23.275Z,8
2017-02-07T15:23:23.204Z,8
2017-02-07T15:24:23.150Z,8
2017-02-07T15:25:22.694Z,8
2017-02-07T15:26:23.009Z,8
2017-02-07T15:27:22.996Z,8